Wednesday, April 01, 2015
08:05 UTC
  |  Log In   |  Register Free
Airport Search:

Bishop International Airport
(KFNT)

FAA data valid effective March 05, 2015 - April 30, 2015 (unless otherwise noted).

 
 
 
 
 
 
 
 
 
 
 
 
 
 

Current Aviation Weather for Bishop International Airport (KFNT)

The most recent METAR observation for KFNT was updated at: 0709
METAR Summary (Translated METAR)
KFNT
010653Z AUTO 34005KT 10SM CLR 02/M01 A2998 RMK AO2 SLP159 T00221011
KRNP
010655Z AUTO 00000KT 10SM BKN043 01/01 A2998 RMK AO2 T00130011
(17.4 nm NW from KFNT)
KD95
010653Z AUTO 00000KT 10SM OVC065 M01/M02 A2998 RMK AO2 T10151025
(21.6 nm NE from KFNT)
TAF Summary (Translated TAF)
KFNT
010527Z 0106/0206 22005KT P6SM BKN050 FM011200 02004KT P6SM SCT035 FM011800 15006KT P6SM SKC
  Airport Weather Conditions for KFNT

 Current Weather at FNT
36° F
Fair
North winds at 5.8 mph
FNT NOAA Radar

Pressure: 29.98 in
Humidity: 79%
Wind: North at 5.8 MPH (5 KT)
Dew Point: 30.0°F
Visibility: 10.00 mi


Airport Weather Forecast for KFNT

Translated METAR and TAF for KFNT
Translated METAR for KFNT (0805 UTC 01 April 2015)
found at http://aviationweather.gov/adds/metars/
 
METAR text: KFNT 010753Z AUTO 00000KT 10SM SCT046 02/M01 A2998 RMK AO2 SLP159 T00171011
Conditions at: KFNT (FLINT , MI, US) observed 0753 UTC 01 April 2015
Temperature: 1.7°C (35°F)
Dewpoint: -1.1°C (30°F) [RH = 82%]
Pressure (altimeter): 29.98 inches Hg (1015.3 mb)
[Sea-level pressure: 1015.9 mb]
Winds: calm
Visibility: 10 or more miles (16+ km)
Ceiling: at least 12,000 feet AGL
Clouds: scattered clouds at 4600 feet AGL
Weather: automated observation with no human augmentation;
there may or may not be significant weather present at this time
Translated TAF for KFNT
Forecast for: KFNT (FLINT , MI, US)
TAF Text: KFNT 010527Z 0106/0206 22005KT P6SM BKN050
Forecast period: 0600 to 1200 UTC 01 April 2015
Forecast type: FROM: standard forecast or significant change
Winds: from the SW (220 degrees) at 6 MPH (5 knots; 2.6 m/s)
Visibility: 6 or more miles (10+ km)
Ceiling: 5000 feet AGL
Clouds: broken clouds at 5000 feet AGL
Weather: no significant weather forecast for this period
TAF Text: FM011200 02004KT P6SM SCT035
Forecast period: 1200 to 1800 UTC 01 April 2015
Forecast type: FROM: standard forecast or significant change
Winds: from the NNE (20 degrees) at 5 MPH (4 knots; 2.1 m/s)
Visibility: 6 or more miles (10+ km)
Clouds: scattered clouds at 3500 feet AGL
Weather: no significant weather forecast for this period
TAF Text: FM011800 15006KT P6SM SKC
Forecast period: 1800 UTC 01 April 2015 to 0600 UTC 02 April 2015
Forecast type: FROM: standard forecast or significant change
Winds: from the SSE (150 degrees) at 7 MPH (6 knots; 3.1 m/s)
Visibility: 6 or more miles (10+ km)
Clouds: clear skies
Weather: no significant weather forecast for this period

Find All Airport Services Find A Hotel Find A Rental Car Find A Golf Course Find A Restaurant $100 Hamburger



FBO's on the Field
FBO Company Facility Photos Services Transportation Aviation Fuel Prices: Prices include tax
Catering Weather Repair Courtesy Rental Type 100LL JetA JetA+ MOGAS 8087
 
Avflight Flint

This FBO has not yet been rated
FS:Avfuel
Last Updated: Mar-23
Login to update fuel prices
SS:
Contact Avflight FlintMore FBO Information
 
Add another FBO Facility Photos Catering Weather Repair Courtesy Rental Type 100LL JetA JetA+ MOGAS 8087
Services Transportation Aviation Fuel Prices: Prices include tax


model-print
model-print
model-print
model-print